createdAt,value
2023-03-08T00:00:24.936Z,0.20
2023-03-08T00:02:54.088Z,0.20
2023-03-08T00:05:21.089Z,0.30
2023-03-08T00:07:48.110Z,0.20
2023-03-08T00:10:15.213Z,0.20
2023-03-08T00:12:42.223Z,0.20
2023-03-08T00:15:09.949Z,0.20
2023-03-08T00:17:38.456Z,0.20
2023-03-08T00:20:11.808Z,0.20
2023-03-08T00:22:40.399Z,0.20
2023-03-08T00:25:09.153Z,0.20
2023-03-08T00:27:37.404Z,0.20
2023-03-08T00:30:08.400Z,0.20
2023-03-08T00:32:35.547Z,0.20
2023-03-08T00:35:03.041Z,0.20
2023-03-08T00:37:30.075Z,0.20
2023-03-08T00:39:57.251Z,0.20
2023-03-08T00:42:25.060Z,0.10
2023-03-08T00:44:52.313Z,0.10
2023-03-08T00:47:19.314Z,0.00
2023-03-08T00:49:46.286Z,0.00
2023-03-08T00:52:13.381Z,0.00
2023-03-08T00:54:40.463Z,0.00
2023-03-08T00:57:07.470Z,0.10
2023-03-08T00:59:34.485Z,0.10
2023-03-08T01:02:01.753Z,0.20
2023-03-08T01:04:29.094Z,0.30
2023-03-08T01:06:56.211Z,0.30
2023-03-08T01:09:23.198Z,0.20
2023-03-08T01:11:50.162Z,0.50
2023-03-08T01:14:17.150Z,0.40
2023-03-08T01:16:44.124Z,0.40
2023-03-08T01:19:11.801Z,0.40
2023-03-08T01:21:39.001Z,0.50
2023-03-08T01:24:06.773Z,0.50
2023-03-08T01:26:34.070Z,0.50
2023-03-08T01:29:01.384Z,0.60
2023-03-08T01:31:30.164Z,0.60
2023-03-08T01:33:58.054Z,0.60
2023-03-08T01:36:27.570Z,0.60
2023-03-08T01:38:54.647Z,0.60
2023-03-08T01:41:27.683Z,0.60
2023-03-08T01:43:55.415Z,0.60
2023-03-08T01:46:24.265Z,0.60
2023-03-08T01:48:53.991Z,0.60
2023-03-08T01:51:26.006Z,0.60
2023-03-08T01:53:54.412Z,0.60
2023-03-08T01:56:22.602Z,0.60
2023-03-08T01:58:51.239Z,0.60
2023-03-08T02:01:20.251Z,0.50
2023-03-08T02:03:48.201Z,0.50
2023-03-08T02:06:17.175Z,0.50
2023-03-08T02:08:44.561Z,0.50
2023-03-08T02:11:13.628Z,0.50
2023-03-08T02:13:41.468Z,0.50
2023-03-08T02:16:12.968Z,0.50
2023-03-08T02:18:53.066Z,0.30
2023-03-08T02:21:20.058Z,0.40
2023-03-08T02:23:47.106Z,0.30
2023-03-08T02:26:14.239Z,0.30
2023-03-08T02:28:41.436Z,0.30
2023-03-08T02:31:08.477Z,0.30
2023-03-08T02:33:35.785Z,0.30
2023-03-08T02:36:03.871Z,0.30
2023-03-08T02:38:31.660Z,0.30
2023-03-08T02:40:58.665Z,0.20
2023-03-08T02:43:26.060Z,0.20
2023-03-08T02:45:53.100Z,0.10
2023-03-08T02:48:20.455Z,0.10
2023-03-08T02:50:47.510Z,0.10
2023-03-08T02:53:14.549Z,0.10
2023-03-08T02:55:41.755Z,0.10
2023-03-08T02:58:10.391Z,0.10
2023-03-08T03:00:38.543Z,0.00
2023-03-08T03:03:05.713Z,-0.10
2023-03-08T03:05:32.784Z,-0.10
2023-03-08T03:08:00.071Z,-0.20
2023-03-08T03:10:27.547Z,-0.20
2023-03-08T03:12:54.665Z,-0.20
2023-03-08T03:15:21.783Z,-0.20
2023-03-08T03:17:49.315Z,-0.10
2023-03-08T03:20:16.698Z,-0.10
2023-03-08T03:22:45.060Z,0.00
2023-03-08T03:25:12.090Z,0.00
2023-03-08T03:27:39.232Z,-0.10
2023-03-08T03:30:08.631Z,-0.10
2023-03-08T03:32:35.870Z,-0.10
2023-03-08T03:35:02.972Z,-0.10
2023-03-08T03:37:43.291Z,-0.10
2023-03-08T03:40:12.036Z,0.00
2023-03-08T03:42:38.932Z,0.00
2023-03-08T03:45:06.528Z,0.00
2023-03-08T03:47:33.454Z,0.00
2023-03-08T03:50:00.378Z,0.10
2023-03-08T03:52:27.314Z,0.00
2023-03-08T03:54:54.311Z,0.00
2023-03-08T03:57:21.267Z,0.00
2023-03-08T03:59:48.194Z,0.00
2023-03-08T04:02:15.091Z,-0.10
2023-03-08T04:04:42.057Z,-0.10
2023-03-08T04:07:11.984Z,0.00
2023-03-08T04:09:38.908Z,0.00
2023-03-08T04:12:06.279Z,0.00
2023-03-08T04:14:33.354Z,0.00
2023-03-08T04:17:00.456Z,0.00
2023-03-08T04:19:27.372Z,0.00
2023-03-08T04:21:54.334Z,0.00
2023-03-08T04:24:21.224Z,0.00
2023-03-08T04:26:48.230Z,0.00
2023-03-08T04:29:15.212Z,0.00
2023-03-08T04:31:42.501Z,0.00
2023-03-08T04:34:09.440Z,0.00
2023-03-08T04:36:37.691Z,0.00
2023-03-08T04:39:04.657Z,0.00
2023-03-08T04:41:31.639Z,-0.10
2023-03-08T04:43:58.556Z,-0.10
2023-03-08T04:46:27.859Z,0.00
2023-03-08T04:48:56.136Z,-0.10
2023-03-08T04:51:26.882Z,-0.20
2023-03-08T04:53:54.234Z,-0.20
2023-03-08T04:56:21.516Z,-0.20
2023-03-08T04:58:48.802Z,-0.30
2023-03-08T05:01:18.672Z,-0.40
2023-03-08T05:03:46.721Z,-0.40
2023-03-08T05:06:17.162Z,-0.30
2023-03-08T05:08:44.600Z,-0.30
2023-03-08T05:11:22.429Z,-0.30
2023-03-08T05:13:49.813Z,-0.30
2023-03-08T05:16:17.007Z,-0.30
2023-03-08T05:18:44.076Z,-0.30
2023-03-08T05:21:13.887Z,-0.40
2023-03-08T05:23:41.194Z,-0.40
2023-03-08T05:26:09.474Z,-0.40
2023-03-08T05:28:41.955Z,-0.40
2023-03-08T05:31:20.464Z,-0.40
2023-03-08T05:33:51.019Z,-0.40
2023-03-08T05:36:19.011Z,-0.40
2023-03-08T05:38:46.112Z,-0.30
2023-03-08T05:41:15.985Z,-0.20
2023-03-08T05:43:43.626Z,-0.10
2023-03-08T05:46:19.391Z,0.00
2023-03-08T05:48:46.788Z,0.00
2023-03-08T05:51:16.239Z,0.10
2023-03-08T05:53:43.691Z,0.20
2023-03-08T05:56:16.330Z,0.20
2023-03-08T05:58:44.793Z,0.30
2023-03-08T06:01:16.838Z,0.30
2023-03-08T06:03:44.563Z,0.30
2023-03-08T06:06:11.991Z,0.30
2023-03-08T06:08:39.567Z,0.30
2023-03-08T06:11:06.742Z,0.40
2023-03-08T06:13:34.190Z,0.40
2023-03-08T06:16:01.671Z,0.40
2023-03-08T06:18:29.289Z,0.40
2023-03-08T06:21:02.019Z,0.40
2023-03-08T06:23:30.634Z,0.50
2023-03-08T06:25:58.032Z,0.60
2023-03-08T06:28:26.191Z,0.70
2023-03-08T06:30:53.427Z,0.70
2023-03-08T06:33:22.304Z,0.60
2023-03-08T06:35:59.578Z,0.70
2023-03-08T06:38:29.686Z,0.60
2023-03-08T06:40:57.364Z,0.60
2023-03-08T06:43:24.518Z,0.60
2023-03-08T06:45:51.797Z,0.60
2023-03-08T06:48:18.791Z,0.60
2023-03-08T06:50:45.886Z,0.60
2023-03-08T06:53:13.435Z,0.60
2023-03-08T06:55:43.213Z,0.60
2023-03-08T06:58:10.248Z,0.60
2023-03-08T07:00:37.560Z,0.50
2023-03-08T07:03:04.542Z,0.50
2023-03-08T07:05:31.637Z,0.50
2023-03-08T07:07:58.805Z,0.50
2023-03-08T07:10:26.198Z,0.50
2023-03-08T07:12:53.380Z,0.50
2023-03-08T07:15:23.330Z,0.50
2023-03-08T07:17:52.643Z,0.50
2023-03-08T07:20:20.745Z,0.50
2023-03-08T07:22:48.086Z,0.50
2023-03-08T07:25:17.449Z,0.50
2023-03-08T07:27:44.565Z,0.40
2023-03-08T07:30:14.076Z,0.40
2023-03-08T07:32:44.275Z,0.30
2023-03-08T07:35:14.328Z,0.30
2023-03-08T07:37:44.179Z,0.30
2023-03-08T07:40:13.176Z,0.40
2023-03-08T07:42:40.226Z,0.50
2023-03-08T07:45:12.268Z,0.60
2023-03-08T07:47:42.857Z,0.60
2023-03-08T07:50:10.402Z,0.70
2023-03-08T07:52:37.331Z,0.70
2023-03-08T07:55:04.612Z,0.70
2023-03-08T07:57:31.559Z,0.70
2023-03-08T07:59:58.497Z,0.60
2023-03-08T08:02:25.425Z,0.50
2023-03-08T08:04:52.406Z,0.30
2023-03-08T08:07:19.464Z,0.20
2023-03-08T08:09:46.429Z,0.10
2023-03-08T08:12:13.403Z,0.10
2023-03-08T08:14:40.452Z,0.20
2023-03-08T08:17:07.517Z,0.20
2023-03-08T08:19:34.717Z,0.20
2023-03-08T08:22:01.658Z,0.20
2023-03-08T08:24:29.436Z,0.20
2023-03-08T08:26:56.695Z,0.30
2023-03-08T08:29:23.767Z,0.40
2023-03-08T08:31:52.909Z,0.60
2023-03-08T08:34:20.701Z,0.70
2023-03-08T08:36:47.775Z,0.80
2023-03-08T08:39:14.944Z,0.80
2023-03-08T08:41:42.061Z,0.80
2023-03-08T08:44:09.038Z,0.90
2023-03-08T08:46:36.193Z,0.80
2023-03-08T08:49:05.588Z,0.80
2023-03-08T08:51:32.785Z,0.80
2023-03-08T08:53:59.800Z,0.80
2023-03-08T08:56:28.733Z,0.70
2023-03-08T08:58:57.592Z,0.70
2023-03-08T09:01:28.301Z,0.70
2023-03-08T09:03:55.490Z,0.70
2023-03-08T09:06:23.775Z,0.70
2023-03-08T09:08:56.228Z,0.80
2023-03-08T09:11:24.731Z,0.90
2023-03-08T09:13:52.103Z,0.90
2023-03-08T09:16:32.694Z,0.90
2023-03-08T09:19:01.190Z,1.00
2023-03-08T09:21:29.004Z,1.00
2023-03-08T09:23:58.932Z,1.10
2023-03-08T09:26:25.888Z,1.30
2023-03-08T09:28:52.770Z,1.40
2023-03-08T09:31:19.923Z,1.40
2023-03-08T09:33:49.659Z,1.50
2023-03-08T09:36:16.787Z,1.50
2023-03-08T09:38:43.784Z,1.50
2023-03-08T09:41:21.830Z,1.40
2023-03-08T09:44:12.108Z,1.40
2023-03-08T09:46:52.650Z,1.50
2023-03-08T09:49:27.139Z,1.50
2023-03-08T09:52:16.410Z,1.40
2023-03-08T09:54:43.712Z,1.40
2023-03-08T09:57:21.522Z,1.30
2023-03-08T10:00:07.694Z,1.40
2023-03-08T10:02:53.074Z,1.40
2023-03-08T10:05:43.002Z,1.50
2023-03-08T10:08:35.308Z,1.60
2023-03-08T10:11:07.421Z,1.70
2023-03-08T10:13:42.871Z,1.70
2023-03-08T10:16:28.486Z,1.70
2023-03-08T10:19:16.957Z,1.80
2023-03-08T10:21:45.223Z,1.80
2023-03-08T10:24:39.648Z,2.00
2023-03-08T10:27:24.186Z,2.30
2023-03-08T10:30:02.187Z,2.40
2023-03-08T10:32:29.503Z,2.70
2023-03-08T10:35:04.839Z,2.90
2023-03-08T10:37:33.372Z,3.10
2023-03-08T10:40:05.585Z,3.20
2023-03-08T10:42:33.686Z,3.40
2023-03-08T10:45:14.941Z,3.50
2023-03-08T10:47:42.129Z,3.60
2023-03-08T10:50:16.714Z,3.60
2023-03-08T10:52:45.606Z,3.50
2023-03-08T10:55:18.619Z,3.30
2023-03-08T10:58:03.861Z,3.10
2023-03-08T11:00:37.221Z,2.80
2023-03-08T11:03:15.410Z,2.70
2023-03-08T11:05:56.341Z,2.70
2023-03-08T11:08:31.282Z,2.80
2023-03-08T11:11:05.551Z,3.00
2023-03-08T11:13:45.179Z,3.20
2023-03-08T11:16:30.538Z,3.20
2023-03-08T11:19:06.565Z,3.20
2023-03-08T11:21:57.691Z,3.20
2023-03-08T11:24:27.379Z,3.10
2023-03-08T11:27:11.949Z,3.10
2023-03-08T11:29:59.437Z,2.90
2023-03-08T11:32:53.571Z,2.80
2023-03-08T11:35:25.445Z,2.70
2023-03-08T11:38:20.518Z,2.70
2023-03-08T11:41:05.907Z,2.60
2023-03-08T11:43:42.107Z,2.60
2023-03-08T11:46:40.202Z,2.50
2023-03-08T11:49:34.557Z,2.40
2023-03-08T11:52:12.599Z,2.30
2023-03-08T11:54:56.436Z,2.20
2023-03-08T11:57:29.001Z,2.10
2023-03-08T12:00:01.105Z,2.00
2023-03-08T12:02:34.694Z,2.00
2023-03-08T12:05:30.594Z,2.00
2023-03-08T12:08:02.744Z,2.00
2023-03-08T12:10:42.338Z,1.90
2023-03-08T12:13:17.635Z,1.90
2023-03-08T12:15:58.961Z,1.90
2023-03-08T12:18:36.371Z,1.90
2023-03-08T12:21:15.328Z,1.90
2023-03-08T12:24:04.674Z,1.90
2023-03-08T12:26:39.173Z,1.80
2023-03-08T12:29:16.480Z,1.60
2023-03-08T12:31:46.490Z,1.60
2023-03-08T12:34:45.142Z,1.60
2023-03-08T12:37:27.419Z,1.60
2023-03-08T12:40:28.953Z,1.60
2023-03-08T12:43:25.234Z,1.60
2023-03-08T12:46:01.568Z,1.50
2023-03-08T12:48:44.606Z,1.50
2023-03-08T12:51:14.768Z,1.50
2023-03-08T12:53:44.927Z,1.40
2023-03-08T12:56:11.929Z,1.40
2023-03-08T12:58:49.678Z,1.40
2023-03-08T13:01:37.973Z,1.40
2023-03-08T13:04:38.605Z,1.30
2023-03-08T13:07:06.543Z,1.30
2023-03-08T13:09:42.128Z,1.30
2023-03-08T13:12:09.058Z,1.20
2023-03-08T13:14:58.291Z,1.20
2023-03-08T13:17:39.478Z,1.20
2023-03-08T13:20:15.345Z,1.20
2023-03-08T13:23:08.679Z,1.20
2023-03-08T13:25:35.575Z,1.30
2023-03-08T13:28:09.559Z,1.30
2023-03-08T13:30:42.358Z,1.30
2023-03-08T13:33:18.170Z,1.20
2023-03-08T13:35:59.066Z,1.20
2023-03-08T13:38:27.726Z,1.00
2023-03-08T13:40:56.218Z,1.00
2023-03-08T13:43:25.124Z,0.90
2023-03-08T13:45:55.201Z,1.00
2023-03-08T13:48:24.710Z,1.00
2023-03-08T13:50:52.586Z,0.90
2023-03-08T13:53:32.032Z,1.00
2023-03-08T13:56:13.732Z,1.00
2023-03-08T13:58:46.186Z,1.00
2023-03-08T14:01:19.091Z,1.00
2023-03-08T14:03:47.084Z,1.00
2023-03-08T14:06:21.409Z,1.00
2023-03-08T14:08:48.984Z,1.10
2023-03-08T14:11:25.677Z,1.10
2023-03-08T14:13:55.235Z,1.10
2023-03-08T14:16:34.347Z,1.10
2023-03-08T14:19:19.704Z,1.10
2023-03-08T14:21:54.027Z,1.00
2023-03-08T14:24:24.878Z,1.00
2023-03-08T14:27:02.792Z,1.00
2023-03-08T14:29:32.850Z,1.00
2023-03-08T14:32:12.086Z,1.00
2023-03-08T14:34:46.452Z,1.00
2023-03-08T14:37:28.103Z,1.00
2023-03-08T14:40:13.762Z,1.00
2023-03-08T14:42:47.479Z,1.10
2023-03-08T14:45:23.780Z,1.10
2023-03-08T14:47:58.344Z,1.00
2023-03-08T14:50:33.578Z,1.00
2023-03-08T14:53:02.624Z,0.90
2023-03-08T14:55:29.571Z,1.00
2023-03-08T14:58:12.358Z,1.00
2023-03-08T15:00:50.318Z,1.00
2023-03-08T15:03:17.240Z,0.90
2023-03-08T15:05:45.818Z,0.80
2023-03-08T15:08:14.580Z,0.80
2023-03-08T15:10:42.058Z,0.80
2023-03-08T15:13:17.915Z,0.70
2023-03-08T15:15:45.782Z,0.70
2023-03-08T15:18:12.797Z,0.70
2023-03-08T15:20:44.791Z,0.70
2023-03-08T15:23:20.630Z,0.60
2023-03-08T15:25:47.576Z,0.60
2023-03-08T15:28:17.081Z,0.60
2023-03-08T15:30:44.213Z,0.60
2023-03-08T15:33:11.173Z,0.60
2023-03-08T15:35:39.153Z,0.60
2023-03-08T15:38:06.838Z,0.60
2023-03-08T15:40:35.229Z,0.60
2023-03-08T15:43:02.387Z,0.50
2023-03-08T15:45:29.415Z,0.50
2023-03-08T15:48:01.364Z,0.50
2023-03-08T15:50:29.378Z,0.50
2023-03-08T15:52:56.745Z,0.50
2023-03-08T15:55:25.215Z,0.50
2023-03-08T15:57:52.310Z,0.40
2023-03-08T16:00:22.071Z,0.40
2023-03-08T16:02:49.191Z,0.40
2023-03-08T16:05:16.709Z,0.40
2023-03-08T16:07:43.772Z,0.30
2023-03-08T16:10:13.930Z,0.20
2023-03-08T16:12:41.529Z,0.30
2023-03-08T16:15:08.953Z,0.20
2023-03-08T16:17:36.145Z,0.20
2023-03-08T16:22:53.099Z,0.10
2023-03-08T16:25:26.088Z,0.10
2023-03-08T16:27:58.746Z,0.10
2023-03-08T16:30:32.370Z,0.10
2023-03-08T16:33:05.844Z,0.10
2023-03-08T16:35:40.207Z,0.00
2023-03-08T16:38:11.006Z,0.00
2023-03-08T16:40:40.272Z,0.00
2023-03-08T16:43:12.093Z,0.00
2023-03-08T16:46:01.102Z,0.00
2023-03-08T16:48:36.790Z,-0.10
2023-03-08T16:51:08.842Z,-0.10
2023-03-08T16:53:44.000Z,-0.10
2023-03-08T16:56:32.960Z,-0.10
2023-03-08T16:59:03.798Z,0.00
2023-03-08T17:01:35.981Z,0.00
2023-03-08T17:04:06.705Z,0.00
2023-03-08T17:06:40.290Z,0.00
2023-03-08T17:09:11.951Z,0.00
2023-03-08T17:11:42.892Z,0.00
2023-03-08T17:14:21.399Z,-0.10
2023-03-08T17:16:53.278Z,-0.10
2023-03-08T17:19:24.615Z,-0.20
2023-03-08T17:21:57.616Z,-0.20
2023-03-08T17:24:30.596Z,-0.30
2023-03-08T17:27:01.737Z,-0.30
2023-03-08T17:29:32.576Z,-0.40
2023-03-08T17:32:11.426Z,-0.40
2023-03-08T17:34:43.158Z,-0.50
2023-03-08T17:37:17.055Z,-0.50
2023-03-08T17:39:48.727Z,-0.50
2023-03-08T17:42:19.352Z,-0.50
2023-03-08T17:44:50.495Z,-0.50
2023-03-08T17:47:20.412Z,-0.60
2023-03-08T17:49:54.020Z,-0.60
2023-03-08T17:52:28.727Z,-0.70
2023-03-08T17:55:00.290Z,-0.70
2023-03-08T17:57:31.438Z,-0.70
2023-03-08T18:00:04.437Z,-0.80
2023-03-08T18:02:37.139Z,-0.80
2023-03-08T18:05:11.012Z,-0.70
2023-03-08T18:07:42.188Z,-0.70
2023-03-08T18:10:18.232Z,-0.70
2023-03-08T18:12:48.105Z,-0.60
2023-03-08T18:15:20.204Z,-0.60
2023-03-08T18:17:51.045Z,-0.50
2023-03-08T18:20:20.951Z,-0.50
2023-03-08T18:22:52.701Z,-0.50
2023-03-08T18:25:30.922Z,-0.40
2023-03-08T18:28:05.133Z,-0.40
2023-03-08T18:30:38.425Z,-0.40
2023-03-08T18:33:10.797Z,-0.30
2023-03-08T18:35:46.245Z,-0.30
2023-03-08T18:38:22.784Z,-0.40
2023-03-08T18:40:50.980Z,-0.30
2023-03-08T18:43:22.123Z,-0.40
2023-03-08T18:45:55.119Z,-0.40
2023-03-08T18:48:26.246Z,-0.50
2023-03-08T18:51:01.699Z,-0.50
2023-03-08T18:53:32.853Z,-0.60
2023-03-08T18:56:07.674Z,-0.60
2023-03-08T18:58:41.281Z,-0.60
2023-03-08T19:01:18.602Z,-0.60
2023-03-08T19:03:48.701Z,-0.60
2023-03-08T19:06:20.230Z,-0.60
2023-03-08T19:08:52.246Z,-0.70
2023-03-08T19:11:26.517Z,-0.70
2023-03-08T19:14:00.112Z,-0.90
2023-03-08T19:16:34.089Z,-1.00
2023-03-08T19:19:11.628Z,-1.00
2023-03-08T19:21:45.540Z,-1.10
2023-03-08T19:24:18.746Z,-1.10
2023-03-08T19:26:53.610Z,-1.10
2023-03-08T19:29:29.958Z,-1.10
2023-03-08T19:32:10.401Z,-1.20
2023-03-08T19:34:48.596Z,-1.20
2023-03-08T19:37:20.351Z,-1.30
2023-03-08T19:39:51.191Z,-1.30
2023-03-08T19:42:24.183Z,-1.30
2023-03-08T19:44:56.549Z,-1.30
2023-03-08T19:47:26.163Z,-1.30
2023-03-08T19:49:57.912Z,-1.30
2023-03-08T19:52:30.898Z,-1.30
2023-03-08T19:55:04.198Z,-1.40
2023-03-08T19:57:38.138Z,-1.40
2023-03-08T20:00:10.785Z,-1.30
2023-03-08T20:02:44.078Z,-1.40
2023-03-08T20:05:14.370Z,-1.40
2023-03-08T20:07:44.216Z,-1.40
2023-03-08T20:10:18.776Z,-1.40
2023-03-08T20:12:51.417Z,-1.40
2023-03-08T20:15:20.418Z,-1.40
2023-03-08T20:17:50.325Z,-1.40
2023-03-08T20:20:19.633Z,-1.40
2023-03-08T20:22:51.692Z,-1.30
2023-03-08T20:25:20.684Z,-1.30
2023-03-08T20:27:50.309Z,-1.30
2023-03-08T20:30:19.282Z,-1.30
2023-03-08T20:32:49.196Z,-1.30
2023-03-08T20:35:20.218Z,-1.30
2023-03-08T20:37:50.259Z,-1.30
2023-03-08T20:40:22.321Z,-1.30
2023-03-08T20:42:50.949Z,-1.30
2023-03-08T20:45:25.227Z,-1.30
2023-03-08T20:47:56.366Z,-1.30
2023-03-08T20:50:27.834Z,-1.30
2023-03-08T20:52:57.128Z,-1.20
2023-03-08T20:55:25.498Z,-1.30
2023-03-08T20:57:54.496Z,-1.30
2023-03-08T21:00:26.868Z,-1.30
2023-03-08T21:02:59.568Z,-1.30
2023-03-08T21:05:28.789Z,-1.30
2023-03-08T21:08:00.300Z,-1.30
2023-03-08T21:10:36.360Z,-1.30
2023-03-08T21:13:16.409Z,-1.20
2023-03-08T21:15:45.435Z,-1.20
2023-03-08T21:18:17.168Z,-1.30
2023-03-08T21:20:48.812Z,-1.30
2023-03-08T21:23:23.443Z,-1.30
2023-03-08T21:25:54.272Z,-1.30
2023-03-08T21:28:28.148Z,-1.30
2023-03-08T21:30:59.719Z,-1.30
2023-03-08T21:33:30.776Z,-1.20
2023-03-08T21:36:00.502Z,-1.20
2023-03-08T21:38:30.299Z,-1.20
2023-03-08T21:41:07.284Z,-1.20
2023-03-08T21:43:44.262Z,-1.20
2023-03-08T21:46:20.338Z,-1.20
2023-03-08T21:48:56.079Z,-1.20
2023-03-08T21:51:26.304Z,-1.20
2023-03-08T21:53:58.904Z,-1.20
2023-03-08T21:56:28.288Z,-1.20
2023-03-08T21:58:58.182Z,-1.20
2023-03-08T22:01:32.831Z,-1.20
2023-03-08T22:04:04.772Z,-1.20
2023-03-08T22:06:34.704Z,-1.20
2023-03-08T22:09:05.628Z,-1.20
2023-03-08T22:11:34.827Z,-1.20
2023-03-08T22:14:04.745Z,-1.20
2023-03-08T22:16:35.035Z,-1.20
2023-03-08T22:19:05.498Z,-1.20
2023-03-08T22:21:36.027Z,-1.20
2023-03-08T22:24:06.247Z,-1.20
2023-03-08T22:29:08.141Z,-1.20
2023-03-08T22:31:37.265Z,-1.20
2023-03-08T22:34:08.370Z,-1.20
2023-03-08T22:36:39.809Z,-1.20
2023-03-08T22:39:09.728Z,-1.20
2023-03-08T22:41:41.490Z,-1.10
2023-03-08T22:44:14.172Z,-1.10
2023-03-08T22:46:46.237Z,-1.10
2023-03-08T22:49:17.991Z,-1.10
2023-03-08T22:51:50.075Z,-1.00
2023-03-08T22:54:26.375Z,-1.00
2023-03-08T22:56:58.636Z,-1.00
2023-03-08T22:59:27.491Z,-1.00
2023-03-08T23:02:00.198Z,-1.00
2023-03-08T23:04:33.823Z,-1.00
2023-03-08T23:07:07.061Z,-1.00
2023-03-08T23:09:41.282Z,-0.90
2023-03-08T23:12:10.880Z,-0.90
2023-03-08T23:14:40.920Z,-1.00
2023-03-08T23:17:12.148Z,-1.00
2023-03-08T23:19:47.690Z,-1.00
2023-03-08T23:22:17.918Z,-1.00
2023-03-08T23:24:53.970Z,-1.00
2023-03-08T23:27:25.419Z,-1.00
2023-03-08T23:29:58.525Z,-1.00
2023-03-08T23:35:09.522Z,-0.90
2023-03-08T23:37:42.285Z,-1.00
2023-03-08T23:40:15.886Z,-1.00
2023-03-08T23:42:46.417Z,-1.00
2023-03-08T23:45:15.111Z,-1.10
2023-03-08T23:47:44.708Z,-1.10
2023-03-08T23:50:14.317Z,-1.10
2023-03-08T23:52:44.545Z,-1.10
2023-03-08T23:55:14.312Z,-1.20
2023-03-08T23:57:44.982Z,-1.30
